createdAt,value
2022-09-02T00:02:40.980Z,67.57
2022-09-02T00:05:43.115Z,66.57
2022-09-02T00:08:45.423Z,66.47
2022-09-02T00:11:48.605Z,67.30
2022-09-02T00:14:50.684Z,66.09
2022-09-02T00:17:52.840Z,67.22
2022-09-02T00:20:54.998Z,67.54
2022-09-02T00:23:57.075Z,67.08
2022-09-02T00:26:59.280Z,66.05
2022-09-02T00:30:01.467Z,65.78
2022-09-02T00:33:05.958Z,66.67
2022-09-02T00:36:08.830Z,67.34
2022-09-02T00:39:11.034Z,67.48
2022-09-02T00:42:13.242Z,67.29
2022-09-02T00:45:15.333Z,66.36
2022-09-02T00:48:17.422Z,67.18
2022-09-02T00:51:19.618Z,66.32
2022-09-02T00:54:23.022Z,66.83
2022-09-02T00:57:29.188Z,67.98
2022-09-02T01:00:35.881Z,67.97
2022-09-02T01:03:38.219Z,66.51
2022-09-02T01:06:41.068Z,66.41
2022-09-02T01:09:43.343Z,66.66
2022-09-02T01:12:45.430Z,66.52
2022-09-02T01:15:50.434Z,66.70
2022-09-02T01:18:55.480Z,67.55
2022-09-02T01:21:57.786Z,67.99
2022-09-02T01:25:05.745Z,67.79
2022-09-02T01:28:11.239Z,67.03
2022-09-02T01:31:15.079Z,67.59
2022-09-02T01:34:17.462Z,66.99
2022-09-02T01:37:19.678Z,65.72
2022-09-02T01:40:21.891Z,67.11
2022-09-02T01:43:26.650Z,66.66
2022-09-02T01:46:29.016Z,65.72
2022-09-02T01:49:31.172Z,66.25
2022-09-02T01:52:37.615Z,65.45
2022-09-02T01:55:39.744Z,66.89
2022-09-02T01:58:42.008Z,66.88
2022-09-02T02:01:45.439Z,66.39
2022-09-02T02:04:47.991Z,66.27
2022-09-02T02:07:50.601Z,66.39
2022-09-02T02:10:52.766Z,67.24
2022-09-02T02:13:56.092Z,66.36
2022-09-02T02:16:58.491Z,66.41
2022-09-02T02:20:00.579Z,67.43
2022-09-02T02:23:02.929Z,66.58
2022-09-02T02:26:05.134Z,66.75
2022-09-02T02:29:08.032Z,66.56
2022-09-02T02:32:11.951Z,67.40
2022-09-02T02:35:16.263Z,67.15
2022-09-02T02:38:18.546Z,67.15
2022-09-02T02:41:20.905Z,66.74
2022-09-02T02:44:23.958Z,67.80
2022-09-02T02:47:26.903Z,66.78
2022-09-02T02:50:29.111Z,66.94
2022-09-02T02:53:31.448Z,66.90
2022-09-02T02:56:33.678Z,67.80
2022-09-02T02:59:38.194Z,66.14
2022-09-02T03:02:40.809Z,65.70
2022-09-02T03:05:43.094Z,67.26
2022-09-02T03:08:45.239Z,66.53
2022-09-02T03:11:48.694Z,67.20
2022-09-02T03:14:51.147Z,66.22
2022-09-02T03:17:55.118Z,67.20
2022-09-02T03:20:57.466Z,67.28
2022-09-02T03:23:59.936Z,66.61
2022-09-02T03:27:02.109Z,66.99
2022-09-02T03:30:07.123Z,67.50
2022-09-02T03:33:09.934Z,66.71
2022-09-02T03:36:36.061Z,67.15
2022-09-02T03:39:39.160Z,65.72
2022-09-02T03:42:41.355Z,66.54
2022-09-02T03:45:46.253Z,66.80
2022-09-02T03:48:51.954Z,68.40
2022-09-02T03:51:55.495Z,68.48
2022-09-02T03:54:58.480Z,69.02
2022-09-02T03:58:06.551Z,69.47
2022-09-02T04:01:17.046Z,68.83
2022-09-02T04:04:22.721Z,69.85
2022-09-02T04:07:26.566Z,69.41
2022-09-02T04:10:28.844Z,69.83
2022-09-02T04:13:31.222Z,69.41
2022-09-02T04:16:33.423Z,67.29
2022-09-02T04:19:40.551Z,67.55
2022-09-02T04:22:42.735Z,67.74
2022-09-02T04:25:45.750Z,68.51
2022-09-02T04:28:50.272Z,67.96
2022-09-02T04:31:53.595Z,67.76
2022-09-02T04:34:57.198Z,68.43
2022-09-02T04:38:00.362Z,68.40
2022-09-02T04:41:07.971Z,66.66
2022-09-02T04:44:11.030Z,67.54
2022-09-02T04:47:16.530Z,67.91
2022-09-02T04:50:19.770Z,67.46
2022-09-02T04:53:33.507Z,69.29
2022-09-02T04:56:38.523Z,67.74
2022-09-02T04:59:42.875Z,67.94
2022-09-02T05:02:47.231Z,67.57
2022-09-02T05:06:02.186Z,68.72
2022-09-02T05:09:04.973Z,69.21
2022-09-02T05:12:10.024Z,67.57
2022-09-02T05:15:20.448Z,67.40
2022-09-02T05:18:23.602Z,68.10
2022-09-02T05:21:26.128Z,68.39
2022-09-02T05:24:29.687Z,69.69
2022-09-02T05:27:36.798Z,70.73
2022-09-02T05:30:40.492Z,71.90
2022-09-02T05:33:44.627Z,71.38
2022-09-02T05:36:52.481Z,72.07
2022-09-02T05:39:54.967Z,72.42
2022-09-02T05:42:57.130Z,71.36
2022-09-02T05:45:59.923Z,71.11
2022-09-02T05:49:17.704Z,71.67
2022-09-02T05:52:25.080Z,71.41
2022-09-02T05:55:29.428Z,70.92
2022-09-02T05:58:32.528Z,71.93
2022-09-02T06:01:39.886Z,71.01
2022-09-02T06:04:44.616Z,70.83
2022-09-02T06:07:47.564Z,69.82
2022-09-02T06:10:49.806Z,70.39
2022-09-02T06:13:55.768Z,69.26
2022-09-02T06:16:59.741Z,68.42
2022-09-02T06:20:13.986Z,67.80
2022-09-02T06:23:18.403Z,68.26
2022-09-02T06:26:21.491Z,66.73
2022-09-02T06:29:25.728Z,67.53
2022-09-02T06:32:29.196Z,67.40
2022-09-02T06:35:39.895Z,68.05
2022-09-02T06:38:48.944Z,68.65
2022-09-02T06:41:52.164Z,68.57
2022-09-02T06:44:56.404Z,67.41
2022-09-02T06:47:59.815Z,68.05
2022-09-02T06:51:02.500Z,68.01
2022-09-02T06:54:07.329Z,67.25
2022-09-02T06:57:11.670Z,67.07
2022-09-02T07:00:14.630Z,65.36
2022-09-02T07:03:36.949Z,64.68
2022-09-02T07:06:42.704Z,67.26
2022-09-02T07:09:45.136Z,66.64
2022-09-02T07:12:51.146Z,66.23
2022-09-02T07:15:53.543Z,65.29
2022-09-02T07:18:56.488Z,65.28
2022-09-02T07:21:59.358Z,62.93
2022-09-02T07:25:02.280Z,62.81
2022-09-02T07:28:05.690Z,62.52
2022-09-02T07:31:11.263Z,61.77
2022-09-02T07:34:14.704Z,63.56
2022-09-02T07:37:16.818Z,63.70
2022-09-02T07:40:19.159Z,63.83
2022-09-02T07:43:22.536Z,62.63
2022-09-02T07:46:25.272Z,62.20
2022-09-02T07:49:28.001Z,62.20
2022-09-02T07:52:30.814Z,61.50
2022-09-02T07:55:35.122Z,61.22
2022-09-02T07:58:39.242Z,61.20
2022-09-02T08:04:52.082Z,62.92
2022-09-02T08:07:54.632Z,61.54
2022-09-02T08:10:57.226Z,58.07
2022-09-02T08:14:00.093Z,58.47
2022-09-02T08:17:02.434Z,59.70
2022-09-02T08:20:07.270Z,57.92
2022-09-02T08:23:33.528Z,57.79
2022-09-02T08:26:37.153Z,58.13
2022-09-02T08:29:39.894Z,58.47
2022-09-02T08:32:42.206Z,59.42
2022-09-02T08:35:44.335Z,59.88
2022-09-02T08:38:46.836Z,58.86
2022-09-02T08:42:07.056Z,59.65
2022-09-02T08:45:14.538Z,59.60
2022-09-02T08:48:22.493Z,58.93
2022-09-02T08:51:37.190Z,55.46
2022-09-02T08:54:55.618Z,58.52
2022-09-02T08:57:57.871Z,56.19
2022-09-02T09:01:39.149Z,60.91
2022-09-02T09:05:18.308Z,58.13
2022-09-02T09:08:55.458Z,57.84
2022-09-02T09:12:23.349Z,56.69
2022-09-02T09:15:46.300Z,54.21
2022-09-02T09:19:00.826Z,54.71
2022-09-02T09:22:03.544Z,51.87
2022-09-02T09:25:11.860Z,51.25
2022-09-02T09:28:13.981Z,52.19
2022-09-02T09:31:18.767Z,52.41
2022-09-02T09:34:20.941Z,52.76
2022-09-02T09:37:35.712Z,53.38
2022-09-02T09:40:38.465Z,52.24
2022-09-02T09:43:40.735Z,51.40
2022-09-02T09:46:42.872Z,51.39
2022-09-02T09:50:08.391Z,49.91
2022-09-02T09:53:22.611Z,51.08
2022-09-02T09:56:27.272Z,52.83
2022-09-02T09:59:57.101Z,46.43
2022-09-02T10:03:01.754Z,47.68
2022-09-02T10:06:21.414Z,44.71
2022-09-02T10:09:32.027Z,44.37
2022-09-02T10:12:34.127Z,46.57
2022-09-02T10:16:15.711Z,45.48
2022-09-02T10:19:30.402Z,44.79
2022-09-02T10:23:13.004Z,43.81
2022-09-02T10:26:32.729Z,43.80
2022-09-02T10:30:16.807Z,43.04
2022-09-02T10:33:36.764Z,42.81
2022-09-02T10:37:11.952Z,40.80
2022-09-02T10:40:16.943Z,41.15
2022-09-02T10:43:57.409Z,41.79
2022-09-02T10:47:01.587Z,41.62
2022-09-02T10:50:30.950Z,40.92
2022-09-02T10:54:01.036Z,41.04
2022-09-02T10:57:12.911Z,41.85
2022-09-02T11:00:20.108Z,39.37
2022-09-02T11:03:29.962Z,40.24
2022-09-02T11:06:58.673Z,37.15
2022-09-02T11:10:19.162Z,39.46
2022-09-02T11:13:31.939Z,39.94
2022-09-02T11:16:46.125Z,39.76
2022-09-02T11:20:38.655Z,38.85
2022-09-02T11:23:47.337Z,38.38
2022-09-02T11:27:25.996Z,39.04
2022-09-02T11:34:35.037Z,40.22
2022-09-02T11:38:20.487Z,39.68
2022-09-02T11:41:36.686Z,41.42
2022-09-02T11:45:03.363Z,40.05
2022-09-02T11:48:36.414Z,36.57
2022-09-02T11:51:54.231Z,36.41
2022-09-02T11:55:32.362Z,37.55
2022-09-02T11:58:46.548Z,37.69
2022-09-02T12:01:55.098Z,37.26
2022-09-02T12:05:31.507Z,36.54
2022-09-02T12:08:36.855Z,36.33
2022-09-02T12:11:49.506Z,35.85
2022-09-02T12:14:51.503Z,39.54
2022-09-02T12:17:53.450Z,39.24
2022-09-02T12:20:59.474Z,38.96
2022-09-02T12:24:01.778Z,37.59
2022-09-02T12:27:09.062Z,38.93
2022-09-02T12:30:12.784Z,39.15
2022-09-02T12:33:15.960Z,39.39
2022-09-02T12:36:44.975Z,34.58
2022-09-02T12:39:51.963Z,36.50
2022-09-02T12:42:54.175Z,36.97
2022-09-02T12:46:24.956Z,37.26
2022-09-02T12:50:05.001Z,35.19
2022-09-02T12:53:42.281Z,36.19
2022-09-02T12:56:49.049Z,36.20
2022-09-02T12:59:51.730Z,34.94
2022-09-02T13:03:46.920Z,32.83
2022-09-02T13:07:32.627Z,35.57
2022-09-02T13:11:25.252Z,35.04
2022-09-02T13:15:10.227Z,34.80
2022-09-02T13:18:39.315Z,34.91
2022-09-02T13:22:16.043Z,35.98
2022-09-02T13:25:50.154Z,35.27
2022-09-02T13:29:32.856Z,35.58
2022-09-02T13:32:35.071Z,36.85
2022-09-02T13:35:39.344Z,37.17
2022-09-02T13:38:42.550Z,39.83
2022-09-02T13:41:44.674Z,43.38
2022-09-02T13:44:47.326Z,42.69
2022-09-02T13:47:57.953Z,45.51
2022-09-02T13:51:13.637Z,45.73
2022-09-02T13:54:26.797Z,48.33
2022-09-02T13:57:29.206Z,47.54
2022-09-02T14:00:40.147Z,46.46
2022-09-02T14:03:51.570Z,46.94
2022-09-02T14:06:54.570Z,45.48
2022-09-02T14:09:58.815Z,41.57
2022-09-02T14:13:03.630Z,47.07
2022-09-02T14:16:28.191Z,50.00
2022-09-02T14:19:30.291Z,45.80
2022-09-02T14:22:32.371Z,45.26
2022-09-02T14:25:38.302Z,43.26
2022-09-02T14:28:40.399Z,45.76
2022-09-02T14:31:42.794Z,44.74
2022-09-02T14:34:46.241Z,44.85
2022-09-02T14:37:57.648Z,46.03
2022-09-02T14:41:12.186Z,42.45
2022-09-02T14:44:36.377Z,39.46
2022-09-02T14:47:39.082Z,41.60
2022-09-02T14:50:41.475Z,40.68
2022-09-02T14:53:43.578Z,44.87
2022-09-02T14:56:50.899Z,46.49
2022-09-02T14:59:52.989Z,48.91
2022-09-02T15:02:56.503Z,48.54
2022-09-02T15:05:58.782Z,47.98
2022-09-02T15:09:00.847Z,48.95
2022-09-02T15:12:03.229Z,51.57
2022-09-02T15:15:06.099Z,47.69
2022-09-02T15:18:09.207Z,46.54
2022-09-02T15:21:11.542Z,49.39
2022-09-02T15:24:14.188Z,51.08
2022-09-02T15:27:17.304Z,51.82
2022-09-02T15:30:23.727Z,51.94
2022-09-02T15:33:25.949Z,51.79
2022-09-02T15:36:28.124Z,53.53
2022-09-02T15:39:30.806Z,52.80
2022-09-02T15:42:36.920Z,54.74
2022-09-02T15:45:47.459Z,54.83
2022-09-02T15:48:50.263Z,54.68
2022-09-02T15:51:54.849Z,53.39
2022-09-02T15:54:57.468Z,53.36
2022-09-02T15:58:00.095Z,53.61
2022-09-02T16:01:05.266Z,53.18
2022-09-02T16:04:07.925Z,53.52
2022-09-02T16:07:10.155Z,52.63
2022-09-02T16:10:18.878Z,51.88
2022-09-02T16:13:22.003Z,53.11
2022-09-02T16:16:24.355Z,54.13
2022-09-02T16:19:30.058Z,53.34
2022-09-02T16:22:32.654Z,56.16
2022-09-02T16:25:34.735Z,55.70
2022-09-02T16:28:43.728Z,56.28
2022-09-02T16:32:01.764Z,56.40
2022-09-02T16:35:09.958Z,56.70
2022-09-02T16:38:12.039Z,57.83
2022-09-02T16:41:32.462Z,56.68
2022-09-02T16:44:35.781Z,57.89
2022-09-02T16:47:37.877Z,57.52
2022-09-02T16:50:40.049Z,57.70
2022-09-02T16:53:42.322Z,57.67
2022-09-02T16:56:44.430Z,57.77
2022-09-02T16:59:46.522Z,59.24
2022-09-02T17:02:48.904Z,58.70
2022-09-02T17:05:51.039Z,57.42
2022-09-02T17:08:54.086Z,57.62
2022-09-02T17:11:56.252Z,51.47
2022-09-02T17:14:58.330Z,52.04
2022-09-02T17:18:00.390Z,56.72
2022-09-02T17:21:20.566Z,58.24
2022-09-02T17:24:25.080Z,57.58
2022-09-02T17:27:27.474Z,56.98
2022-09-02T17:30:29.613Z,59.30
2022-09-02T17:33:31.703Z,59.88
2022-09-02T17:36:38.131Z,60.86
2022-09-02T17:39:40.320Z,59.38
2022-09-02T17:42:42.647Z,59.39
2022-09-02T17:45:48.630Z,59.13
2022-09-02T17:49:15.288Z,59.15
2022-09-02T17:52:15.311Z,58.64
2022-09-02T17:55:19.850Z,59.96
2022-09-02T17:58:22.048Z,60.01
2022-09-02T18:01:24.298Z,60.91
2022-09-02T18:04:58.339Z,61.90
2022-09-02T18:08:24.126Z,62.96
2022-09-02T18:11:26.298Z,62.24
2022-09-02T18:14:43.223Z,63.98
2022-09-02T18:17:52.286Z,63.65
2022-09-02T18:21:16.238Z,63.36
2022-09-02T18:24:27.947Z,64.11
2022-09-02T18:27:40.786Z,63.96
2022-09-02T18:31:18.091Z,63.87
2022-09-02T18:34:33.853Z,64.28
2022-09-02T18:37:35.821Z,63.68
2022-09-02T18:41:16.167Z,64.04
2022-09-02T18:45:03.752Z,63.76
2022-09-02T18:48:12.168Z,64.76
2022-09-02T18:51:44.120Z,64.53
2022-09-02T18:55:02.284Z,64.99
2022-09-02T18:58:43.718Z,65.47
2022-09-02T19:01:55.571Z,65.09
2022-09-02T19:04:58.992Z,65.71
2022-09-02T19:08:24.239Z,64.75
2022-09-02T19:11:27.360Z,66.11
2022-09-02T19:14:30.084Z,66.48
2022-09-02T19:17:32.275Z,66.71
2022-09-02T19:20:35.352Z,66.42
2022-09-02T19:23:37.509Z,67.55
2022-09-02T19:26:40.307Z,68.27
2022-09-02T19:29:47.915Z,69.10
2022-09-02T19:32:53.227Z,70.18
2022-09-02T19:35:59.370Z,70.51
2022-09-02T19:39:01.471Z,71.00
2022-09-02T19:42:05.085Z,71.36
2022-09-02T19:45:15.528Z,71.54
2022-09-02T19:48:18.947Z,72.22
2022-09-02T19:51:25.262Z,72.61
2022-09-02T19:54:29.260Z,72.03
2022-09-02T19:57:31.436Z,73.01
2022-09-02T20:00:33.825Z,73.41
2022-09-02T20:03:36.065Z,73.81
2022-09-02T20:06:38.314Z,73.34
2022-09-02T20:09:41.224Z,73.34
2022-09-02T20:12:43.654Z,73.63
2022-09-02T20:15:45.857Z,74.25
2022-09-02T20:18:50.101Z,74.54
2022-09-02T20:21:52.221Z,74.08
2022-09-02T20:24:55.047Z,74.67
2022-09-02T20:28:13.985Z,75.01
2022-09-02T20:31:16.097Z,74.57
2022-09-02T20:34:35.850Z,74.88
2022-09-02T20:37:54.655Z,76.25
2022-09-02T20:41:19.932Z,75.93
2022-09-02T20:44:27.964Z,75.28
2022-09-02T20:48:15.782Z,76.30
2022-09-02T20:51:35.363Z,76.41
2022-09-02T20:54:57.197Z,76.83
2022-09-02T20:58:32.914Z,76.06
2022-09-02T21:01:37.464Z,76.34
2022-09-02T21:04:45.259Z,75.47
2022-09-02T21:08:04.407Z,75.69
2022-09-02T21:11:14.636Z,75.62
2022-09-02T21:14:22.404Z,75.74
2022-09-02T21:18:14.313Z,74.75
2022-09-02T21:21:36.862Z,75.22
2022-09-02T21:25:23.895Z,76.28
2022-09-02T21:28:39.483Z,76.38
2022-09-02T21:31:54.282Z,76.28
2022-09-02T21:35:13.760Z,76.97
2022-09-02T21:38:46.750Z,77.67
2022-09-02T21:42:18.327Z,77.60
2022-09-02T21:45:34.982Z,78.98
2022-09-02T21:49:00.534Z,77.98
2022-09-02T21:52:33.209Z,77.72
2022-09-02T21:56:00.297Z,77.50
2022-09-02T21:59:27.142Z,75.67
2022-09-02T22:02:51.259Z,75.32
2022-09-02T22:06:29.513Z,74.00
2022-09-02T22:09:31.936Z,72.69
2022-09-02T22:12:39.737Z,71.38
2022-09-02T22:15:58.192Z,70.81
2022-09-02T22:19:03.600Z,70.42
2022-09-02T22:22:15.266Z,70.90
2022-09-02T22:25:17.488Z,71.35
2022-09-02T22:28:39.371Z,71.91
2022-09-02T22:31:42.766Z,71.53
2022-09-02T22:35:15.011Z,69.73
2022-09-02T22:38:28.040Z,70.17
2022-09-02T22:41:33.202Z,69.85
2022-09-02T22:45:18.071Z,71.06
2022-09-02T22:48:55.096Z,70.79
2022-09-02T22:52:28.160Z,70.78
2022-09-02T22:55:51.762Z,70.14
2022-09-02T22:59:24.246Z,70.10
2022-09-02T23:02:46.879Z,69.44
2022-09-02T23:06:03.647Z,69.47
2022-09-02T23:09:08.766Z,69.07
2022-09-02T23:12:45.148Z,70.23
2022-09-02T23:16:23.570Z,71.97
2022-09-02T23:20:08.847Z,72.18
2022-09-02T23:23:41.527Z,72.35
2022-09-02T23:27:12.695Z,72.22
2022-09-02T23:30:14.954Z,71.84
2022-09-02T23:33:20.106Z,70.24
2022-09-02T23:36:55.072Z,70.62
2022-09-02T23:40:51.987Z,71.68
2022-09-02T23:43:54.100Z,72.33
2022-09-02T23:47:05.363Z,73.86
2022-09-02T23:50:16.501Z,72.76
2022-09-02T23:53:35.827Z,73.58
2022-09-02T23:57:01.692Z,74.36
